sensor_id;sensor_type;location;lat;lon;timestamp;P1;durP1;ratioP1;P2;durP2;ratioP2
1404;SDS011;697;51.114;6.542;2023-06-26T00:00:07;7.13;;;6.40;;
1404;SDS011;697;51.114;6.542;2023-06-26T00:02:36;6.83;;;6.23;;
1404;SDS011;697;51.114;6.542;2023-06-26T00:05:03;7.70;;;6.70;;
1404;SDS011;697;51.114;6.542;2023-06-26T00:07:30;8.70;;;6.10;;
1404;SDS011;697;51.114;6.542;2023-06-26T00:10:00;9.20;;;7.13;;
1404;SDS011;697;51.114;6.542;2023-06-26T00:12:27;8.43;;;7.07;;
1404;SDS011;697;51.114;6.542;2023-06-26T00:14:55;7.30;;;6.20;;
1404;SDS011;697;51.114;6.542;2023-06-26T00:17:22;8.77;;;5.93;;
1404;SDS011;697;51.114;6.542;2023-06-26T00:19:49;6.90;;;6.20;;
1404;SDS011;697;51.114;6.542;2023-06-26T00:22:17;6.90;;;6.30;;
1404;SDS011;697;51.114;6.542;2023-06-26T00:24:45;10.80;;;6.50;;
1404;SDS011;697;51.114;6.542;2023-06-26T00:27:12;7.90;;;7.20;;
1404;SDS011;697;51.114;6.542;2023-06-26T00:29:39;12.57;;;8.00;;
1404;SDS011;697;51.114;6.542;2023-06-26T00:32:07;8.30;;;7.30;;
1404;SDS011;697;51.114;6.542;2023-06-26T00:34:34;7.07;;;6.50;;
1404;SDS011;697;51.114;6.542;2023-06-26T00:37:01;10.90;;;7.20;;
1404;SDS011;697;51.114;6.542;2023-06-26T00:39:29;7.30;;;6.70;;
1404;SDS011;697;51.114;6.542;2023-06-26T00:41:55;6.60;;;6.10;;
1404;SDS011;697;51.114;6.542;2023-06-26T00:44:22;7.83;;;7.03;;
1404;SDS011;697;51.114;6.542;2023-06-26T00:46:49;8.27;;;7.13;;
1404;SDS011;697;51.114;6.542;2023-06-26T00:49:17;9.53;;;7.13;;
1404;SDS011;697;51.114;6.542;2023-06-26T00:51:45;7.63;;;6.83;;
1404;SDS011;697;51.114;6.542;2023-06-26T00:54:12;8.10;;;6.40;;
1404;SDS011;697;51.114;6.542;2023-06-26T00:56:44;7.00;;;6.30;;
1404;SDS011;697;51.114;6.542;2023-06-26T00:59:11;7.70;;;6.50;;
1404;SDS011;697;51.114;6.542;2023-06-26T01:01:38;8.67;;;6.60;;
1404;SDS011;697;51.114;6.542;2023-06-26T01:04:05;9.20;;;6.87;;
1404;SDS011;697;51.114;6.542;2023-06-26T01:06:33;8.60;;;6.90;;
1404;SDS011;697;51.114;6.542;2023-06-26T01:09:01;6.97;;;6.37;;
1404;SDS011;697;51.114;6.542;2023-06-26T01:11:28;7.30;;;6.60;;
1404;SDS011;697;51.114;6.542;2023-06-26T01:13:56;6.40;;;5.90;;
1404;SDS011;697;51.114;6.542;2023-06-26T01:16:26;8.10;;;6.77;;
1404;SDS011;697;51.114;6.542;2023-06-26T01:18:55;7.40;;;6.70;;
1404;SDS011;697;51.114;6.542;2023-06-26T01:21:23;7.33;;;6.73;;
1404;SDS011;697;51.114;6.542;2023-06-26T01:24:01;7.83;;;7.00;;
1404;SDS011;697;51.114;6.542;2023-06-26T01:26:35;8.07;;;7.27;;
1404;SDS011;697;51.114;6.542;2023-06-26T01:29:03;7.13;;;6.53;;
1404;SDS011;697;51.114;6.542;2023-06-26T01:31:32;7.30;;;6.60;;
1404;SDS011;697;51.114;6.542;2023-06-26T01:34:01;7.60;;;6.43;;
1404;SDS011;697;51.114;6.542;2023-06-26T01:36:28;7.63;;;6.93;;
1404;SDS011;697;51.114;6.542;2023-06-26T01:38:54;8.20;;;6.63;;
1404;SDS011;697;51.114;6.542;2023-06-26T01:41:21;7.50;;;6.87;;
1404;SDS011;697;51.114;6.542;2023-06-26T01:43:57;7.07;;;6.50;;
1404;SDS011;697;51.114;6.542;2023-06-26T01:46:35;9.50;;;7.10;;
1404;SDS011;697;51.114;6.542;2023-06-26T01:49:07;8.47;;;7.10;;
1404;SDS011;697;51.114;6.542;2023-06-26T01:51:42;7.43;;;6.73;;
1404;SDS011;697;51.114;6.542;2023-06-26T01:54:13;11.40;;;7.20;;
1404;SDS011;697;51.114;6.542;2023-06-26T01:56:48;8.67;;;7.37;;
1404;SDS011;697;51.114;6.542;2023-06-26T01:59:17;8.17;;;7.27;;
1404;SDS011;697;51.114;6.542;2023-06-26T02:01:46;9.63;;;7.10;;
1404;SDS011;697;51.114;6.542;2023-06-26T02:04:13;8.70;;;6.97;;
1404;SDS011;697;51.114;6.542;2023-06-26T02:06:40;7.30;;;6.53;;
1404;SDS011;697;51.114;6.542;2023-06-26T02:09:06;9.37;;;7.50;;
1404;SDS011;697;51.114;6.542;2023-06-26T02:11:33;7.80;;;7.00;;
1404;SDS011;697;51.114;6.542;2023-06-26T02:14:00;8.67;;;7.20;;
1404;SDS011;697;51.114;6.542;2023-06-26T02:16:29;8.37;;;6.90;;
1404;SDS011;697;51.114;6.542;2023-06-26T02:18:56;14.97;;;6.83;;
1404;SDS011;697;51.114;6.542;2023-06-26T02:21:23;6.63;;;6.03;;
1404;SDS011;697;51.114;6.542;2023-06-26T02:23:49;7.27;;;6.57;;
1404;SDS011;697;51.114;6.542;2023-06-26T02:26:16;10.57;;;7.30;;
1404;SDS011;697;51.114;6.542;2023-06-26T02:28:43;7.93;;;7.20;;
1404;SDS011;697;51.114;6.542;2023-06-26T02:31:10;12.30;;;8.03;;
1404;SDS011;697;51.114;6.542;2023-06-26T02:33:38;10.93;;;7.30;;
1404;SDS011;697;51.114;6.542;2023-06-26T02:36:05;8.37;;;6.63;;
1404;SDS011;697;51.114;6.542;2023-06-26T02:38:32;10.20;;;7.13;;
1404;SDS011;697;51.114;6.542;2023-06-26T02:40:59;9.80;;;6.93;;
1404;SDS011;697;51.114;6.542;2023-06-26T02:43:25;8.33;;;6.73;;
1404;SDS011;697;51.114;6.542;2023-06-26T02:45:52;8.67;;;6.70;;
1404;SDS011;697;51.114;6.542;2023-06-26T02:48:19;8.90;;;6.20;;
1404;SDS011;697;51.114;6.542;2023-06-26T02:50:47;7.63;;;6.60;;
1404;SDS011;697;51.114;6.542;2023-06-26T02:53:14;8.33;;;6.57;;
1404;SDS011;697;51.114;6.542;2023-06-26T02:55:41;7.53;;;6.67;;
1404;SDS011;697;51.114;6.542;2023-06-26T02:58:07;8.27;;;6.57;;
1404;SDS011;697;51.114;6.542;2023-06-26T03:00:34;8.73;;;6.93;;
1404;SDS011;697;51.114;6.542;2023-06-26T03:03:06;7.90;;;6.93;;
1404;SDS011;697;51.114;6.542;2023-06-26T03:05:33;7.90;;;7.20;;
1404;SDS011;697;51.114;6.542;2023-06-26T03:08:02;10.53;;;6.80;;
1404;SDS011;697;51.114;6.542;2023-06-26T03:10:29;9.07;;;7.50;;
1404;SDS011;697;51.114;6.542;2023-06-26T03:12:56;8.43;;;6.93;;
1404;SDS011;697;51.114;6.542;2023-06-26T03:15:22;7.97;;;7.27;;
1404;SDS011;697;51.114;6.542;2023-06-26T03:17:49;9.30;;;7.20;;
1404;SDS011;697;51.114;6.542;2023-06-26T03:20:16;7.00;;;6.40;;
1404;SDS011;697;51.114;6.542;2023-06-26T03:22:43;11.33;;;7.10;;
1404;SDS011;697;51.114;6.542;2023-06-26T03:25:11;10.13;;;6.93;;
1404;SDS011;697;51.114;6.542;2023-06-26T03:27:38;7.60;;;6.60;;
1404;SDS011;697;51.114;6.542;2023-06-26T03:30:05;7.00;;;6.30;;
1404;SDS011;697;51.114;6.542;2023-06-26T03:32:32;9.97;;;7.57;;
1404;SDS011;697;51.114;6.542;2023-06-26T03:34:59;8.17;;;7.27;;
1404;SDS011;697;51.114;6.542;2023-06-26T03:37:28;7.50;;;6.80;;
1404;SDS011;697;51.114;6.542;2023-06-26T03:39:54;6.83;;;6.23;;
1404;SDS011;697;51.114;6.542;2023-06-26T03:42:23;7.03;;;6.30;;
1404;SDS011;697;51.114;6.542;2023-06-26T03:44:50;6.80;;;6.20;;
1404;SDS011;697;51.114;6.542;2023-06-26T03:47:16;10.33;;;6.93;;
1404;SDS011;697;51.114;6.542;2023-06-26T03:49:43;7.87;;;6.83;;
1404;SDS011;697;51.114;6.542;2023-06-26T03:52:10;6.63;;;6.03;;
1404;SDS011;697;51.114;6.542;2023-06-26T03:54:37;6.87;;;5.87;;
1404;SDS011;697;51.114;6.542;2023-06-26T03:57:04;10.90;;;6.03;;
1404;SDS011;697;51.114;6.542;2023-06-26T03:59:32;8.03;;;6.30;;
1404;SDS011;697;51.114;6.542;2023-06-26T04:01:59;9.27;;;7.50;;
1404;SDS011;697;51.114;6.542;2023-06-26T04:04:26;7.00;;;6.30;;
1404;SDS011;697;51.114;6.542;2023-06-26T04:06:53;9.80;;;6.50;;
1404;SDS011;697;51.114;6.542;2023-06-26T04:09:19;6.57;;;6.07;;
1404;SDS011;697;51.114;6.542;2023-06-26T04:11:46;7.90;;;6.20;;
1404;SDS011;697;51.114;6.542;2023-06-26T04:14:13;6.97;;;6.37;;
1404;SDS011;697;51.114;6.542;2023-06-26T04:16:41;9.60;;;6.90;;
1404;SDS011;697;51.114;6.542;2023-06-26T04:19:08;7.30;;;6.07;;
1404;SDS011;697;51.114;6.542;2023-06-26T04:21:35;6.53;;;6.03;;
1404;SDS011;697;51.114;6.542;2023-06-26T04:24:02;7.20;;;5.80;;
1404;SDS011;697;51.114;6.542;2023-06-26T04:26:29;8.53;;;6.23;;
1404;SDS011;697;51.114;6.542;2023-06-26T04:28:56;7.77;;;6.90;;
1404;SDS011;697;51.114;6.542;2023-06-26T04:31:23;8.80;;;7.07;;
1404;SDS011;697;51.114;6.542;2023-06-26T04:33:52;6.70;;;6.10;;
1404;SDS011;697;51.114;6.542;2023-06-26T04:36:20;9.20;;;7.20;;
1404;SDS011;697;51.114;6.542;2023-06-26T04:38:47;7.80;;;7.10;;
1404;SDS011;697;51.114;6.542;2023-06-26T04:41:14;7.93;;;7.20;;
1404;SDS011;697;51.114;6.542;2023-06-26T04:43:41;12.53;;;6.20;;
1404;SDS011;697;51.114;6.542;2023-06-26T04:46:08;9.73;;;7.00;;
1404;SDS011;697;51.114;6.542;2023-06-26T04:48:35;7.07;;;6.47;;
1404;SDS011;697;51.114;6.542;2023-06-26T04:51:03;7.07;;;6.20;;
1404;SDS011;697;51.114;6.542;2023-06-26T04:53:30;8.80;;;5.90;;
1404;SDS011;697;51.114;6.542;2023-06-26T04:55:57;8.43;;;6.43;;
1404;SDS011;697;51.114;6.542;2023-06-26T04:58:24;9.00;;;6.20;;
1404;SDS011;697;51.114;6.542;2023-06-26T05:00:50;10.57;;;6.23;;
1404;SDS011;697;51.114;6.542;2023-06-26T05:03:17;9.10;;;6.07;;
1404;SDS011;697;51.114;6.542;2023-06-26T05:05:45;6.30;;;5.50;;
1404;SDS011;697;51.114;6.542;2023-06-26T05:08:17;9.43;;;5.73;;
1404;SDS011;697;51.114;6.542;2023-06-26T05:10:47;7.00;;;4.90;;
1404;SDS011;697;51.114;6.542;2023-06-26T05:13:14;8.03;;;5.50;;
1404;SDS011;697;51.114;6.542;2023-06-26T05:15:42;7.23;;;5.70;;
1404;SDS011;697;51.114;6.542;2023-06-26T05:18:09;8.10;;;5.43;;
1404;SDS011;697;51.114;6.542;2023-06-26T05:20:37;8.37;;;6.60;;
1404;SDS011;697;51.114;6.542;2023-06-26T05:23:04;12.50;;;5.47;;
1404;SDS011;697;51.114;6.542;2023-06-26T05:25:32;6.10;;;5.03;;
1404;SDS011;697;51.114;6.542;2023-06-26T05:28:00;6.30;;;5.70;;
1404;SDS011;697;51.114;6.542;2023-06-26T05:30:30;9.00;;;5.93;;
1404;SDS011;697;51.114;6.542;2023-06-26T05:32:59;6.13;;;5.00;;
1404;SDS011;697;51.114;6.542;2023-06-26T05:35:27;11.40;;;5.67;;
1404;SDS011;697;51.114;6.542;2023-06-26T05:37:56;7.30;;;5.53;;
1404;SDS011;697;51.114;6.542;2023-06-26T05:40:24;7.13;;;5.57;;
1404;SDS011;697;51.114;6.542;2023-06-26T05:42:52;5.47;;;4.53;;
1404;SDS011;697;51.114;6.542;2023-06-26T05:45:19;6.43;;;5.37;;
1404;SDS011;697;51.114;6.542;2023-06-26T05:47:46;8.10;;;5.47;;
1404;SDS011;697;51.114;6.542;2023-06-26T05:50:15;8.07;;;5.47;;
1404;SDS011;697;51.114;6.542;2023-06-26T05:52:43;6.43;;;5.30;;
1404;SDS011;697;51.114;6.542;2023-06-26T05:55:11;6.60;;;5.10;;
1404;SDS011;697;51.114;6.542;2023-06-26T05:57:39;7.00;;;5.23;;
1404;SDS011;697;51.114;6.542;2023-06-26T06:00:09;6.80;;;5.77;;
1404;SDS011;697;51.114;6.542;2023-06-26T06:02:37;9.50;;;5.97;;
1404;SDS011;697;51.114;6.542;2023-06-26T06:05:04;6.83;;;5.30;;
1404;SDS011;697;51.114;6.542;2023-06-26T06:07:32;6.43;;;5.00;;
1404;SDS011;697;51.114;6.542;2023-06-26T06:09:59;6.73;;;5.80;;
1404;SDS011;697;51.114;6.542;2023-06-26T06:12:26;9.57;;;5.70;;
1404;SDS011;697;51.114;6.542;2023-06-26T06:14:53;8.17;;;5.30;;
1404;SDS011;697;51.114;6.542;2023-06-26T06:17:21;8.13;;;5.47;;
1404;SDS011;697;51.114;6.542;2023-06-26T06:19:48;8.60;;;5.77;;
1404;SDS011;697;51.114;6.542;2023-06-26T06:22:15;8.03;;;5.63;;
1404;SDS011;697;51.114;6.542;2023-06-26T06:24:42;10.87;;;7.00;;
1404;SDS011;697;51.114;6.542;2023-06-26T06:27:10;7.33;;;4.80;;
1404;SDS011;697;51.114;6.542;2023-06-26T06:29:37;10.83;;;5.43;;
1404;SDS011;697;51.114;6.542;2023-06-26T06:32:03;9.63;;;4.93;;
1404;SDS011;697;51.114;6.542;2023-06-26T06:34:32;12.13;;;5.10;;
1404;SDS011;697;51.114;6.542;2023-06-26T06:36:58;9.20;;;5.40;;
1404;SDS011;697;51.114;6.542;2023-06-26T06:39:25;7.97;;;5.60;;
1404;SDS011;697;51.114;6.542;2023-06-26T06:41:52;13.70;;;5.20;;
1404;SDS011;697;51.114;6.542;2023-06-26T06:44:19;8.40;;;4.63;;
1404;SDS011;697;51.114;6.542;2023-06-26T06:46:46;9.90;;;5.80;;
1404;SDS011;697;51.114;6.542;2023-06-26T06:49:13;9.67;;;5.73;;
1404;SDS011;697;51.114;6.542;2023-06-26T06:51:43;10.27;;;5.33;;
1404;SDS011;697;51.114;6.542;2023-06-26T06:54:10;9.70;;;6.50;;
1404;SDS011;697;51.114;6.542;2023-06-26T06:56:37;9.60;;;5.80;;
1404;SDS011;697;51.114;6.542;2023-06-26T06:59:04;10.00;;;6.23;;
1404;SDS011;697;51.114;6.542;2023-06-26T07:01:31;8.07;;;5.20;;
1404;SDS011;697;51.114;6.542;2023-06-26T07:03:58;5.97;;;4.60;;
1404;SDS011;697;51.114;6.542;2023-06-26T07:06:25;10.00;;;4.40;;
1404;SDS011;697;51.114;6.542;2023-06-26T07:08:53;9.67;;;5.20;;
1404;SDS011;697;51.114;6.542;2023-06-26T07:11:19;7.63;;;4.87;;
1404;SDS011;697;51.114;6.542;2023-06-26T07:13:46;14.17;;;4.57;;
1404;SDS011;697;51.114;6.542;2023-06-26T07:16:13;10.27;;;4.77;;
1404;SDS011;697;51.114;6.542;2023-06-26T07:18:40;6.87;;;4.80;;
1404;SDS011;697;51.114;6.542;2023-06-26T07:21:07;8.33;;;4.93;;
1404;SDS011;697;51.114;6.542;2023-06-26T07:23:34;12.30;;;5.60;;
1404;SDS011;697;51.114;6.542;2023-06-26T07:26:02;9.67;;;4.03;;
1404;SDS011;697;51.114;6.542;2023-06-26T07:28:29;5.27;;;4.77;;
1404;SDS011;697;51.114;6.542;2023-06-26T07:30:56;7.60;;;4.70;;
1404;SDS011;697;51.114;6.542;2023-06-26T07:33:23;20.13;;;5.57;;
1404;SDS011;697;51.114;6.542;2023-06-26T07:35:49;6.30;;;4.43;;
1404;SDS011;697;51.114;6.542;2023-06-26T07:38:16;9.53;;;4.63;;
1404;SDS011;697;51.114;6.542;2023-06-26T07:40:43;8.27;;;5.00;;
1404;SDS011;697;51.114;6.542;2023-06-26T07:43:11;11.73;;;5.17;;
1404;SDS011;697;51.114;6.542;2023-06-26T07:45:38;8.00;;;5.13;;
1404;SDS011;697;51.114;6.542;2023-06-26T07:48:05;6.27;;;5.13;;
1404;SDS011;697;51.114;6.542;2023-06-26T07:50:32;7.57;;;4.73;;
1404;SDS011;697;51.114;6.542;2023-06-26T07:52:59;7.60;;;4.70;;
1404;SDS011;697;51.114;6.542;2023-06-26T07:55:26;8.47;;;4.60;;
1404;SDS011;697;51.114;6.542;2023-06-26T07:57:53;7.77;;;5.30;;
1404;SDS011;697;51.114;6.542;2023-06-26T08:00:21;8.40;;;5.13;;
1404;SDS011;697;51.114;6.542;2023-06-26T08:02:49;10.70;;;4.30;;
1404;SDS011;697;51.114;6.542;2023-06-26T08:05:15;12.93;;;5.00;;
1404;SDS011;697;51.114;6.542;2023-06-26T08:07:42;11.00;;;5.57;;
1404;SDS011;697;51.114;6.542;2023-06-26T08:10:09;9.07;;;4.93;;
1404;SDS011;697;51.114;6.542;2023-06-26T08:12:36;12.43;;;5.10;;
1404;SDS011;697;51.114;6.542;2023-06-26T08:15:05;10.17;;;5.60;;
1404;SDS011;697;51.114;6.542;2023-06-26T08:17:34;5.70;;;4.40;;
1404;SDS011;697;51.114;6.542;2023-06-26T08:20:01;8.10;;;5.43;;
1404;SDS011;697;51.114;6.542;2023-06-26T08:22:28;7.63;;;5.40;;
1404;SDS011;697;51.114;6.542;2023-06-26T08:24:55;7.73;;;5.03;;
1404;SDS011;697;51.114;6.542;2023-06-26T08:27:22;13.33;;;5.00;;
1404;SDS011;697;51.114;6.542;2023-06-26T08:29:49;6.70;;;4.50;;
1404;SDS011;697;51.114;6.542;2023-06-26T08:32:16;15.37;;;6.33;;
1404;SDS011;697;51.114;6.542;2023-06-26T08:34:44;13.90;;;5.33;;
1404;SDS011;697;51.114;6.542;2023-06-26T08:37:11;8.87;;;5.00;;
1404;SDS011;697;51.114;6.542;2023-06-26T08:39:37;12.13;;;5.43;;
1404;SDS011;697;51.114;6.542;2023-06-26T08:42:05;9.73;;;5.17;;
1404;SDS011;697;51.114;6.542;2023-06-26T08:44:33;8.40;;;5.70;;
1404;SDS011;697;51.114;6.542;2023-06-26T08:47:00;11.50;;;5.47;;
1404;SDS011;697;51.114;6.542;2023-06-26T08:49:28;10.93;;;4.80;;
1404;SDS011;697;51.114;6.542;2023-06-26T08:52:02;13.73;;;5.67;;
1404;SDS011;697;51.114;6.542;2023-06-26T08:54:36;8.23;;;4.80;;
1404;SDS011;697;51.114;6.542;2023-06-26T08:57:09;7.83;;;5.37;;
1404;SDS011;697;51.114;6.542;2023-06-26T08:59:36;7.83;;;5.40;;
1404;SDS011;697;51.114;6.542;2023-06-26T09:02:04;11.27;;;5.50;;
1404;SDS011;697;51.114;6.542;2023-06-26T09:04:31;6.07;;;4.63;;
1404;SDS011;697;51.114;6.542;2023-06-26T09:06:58;14.27;;;6.20;;
1404;SDS011;697;51.114;6.542;2023-06-26T09:09:26;10.60;;;5.83;;
1404;SDS011;697;51.114;6.542;2023-06-26T09:11:54;6.30;;;4.60;;
1404;SDS011;697;51.114;6.542;2023-06-26T09:14:20;9.23;;;5.10;;
1404;SDS011;697;51.114;6.542;2023-06-26T09:16:47;8.13;;;5.00;;
1404;SDS011;697;51.114;6.542;2023-06-26T09:19:15;8.50;;;4.83;;
1404;SDS011;697;51.114;6.542;2023-06-26T09:21:42;5.97;;;4.40;;
1404;SDS011;697;51.114;6.542;2023-06-26T09:24:10;16.27;;;5.73;;
1404;SDS011;697;51.114;6.542;2023-06-26T09:26:38;13.30;;;5.57;;
1404;SDS011;697;51.114;6.542;2023-06-26T09:29:06;6.20;;;4.23;;
1404;SDS011;697;51.114;6.542;2023-06-26T09:31:35;11.17;;;4.70;;
1404;SDS011;697;51.114;6.542;2023-06-26T09:34:03;6.63;;;3.90;;
1404;SDS011;697;51.114;6.542;2023-06-26T09:36:30;7.70;;;3.77;;
1404;SDS011;697;51.114;6.542;2023-06-26T09:38:58;9.80;;;4.40;;
1404;SDS011;697;51.114;6.542;2023-06-26T09:41:28;5.03;;;4.13;;
1404;SDS011;697;51.114;6.542;2023-06-26T09:43:58;7.83;;;4.30;;
1404;SDS011;697;51.114;6.542;2023-06-26T09:46:28;8.37;;;3.80;;
1404;SDS011;697;51.114;6.542;2023-06-26T09:49:01;8.60;;;4.60;;
1404;SDS011;697;51.114;6.542;2023-06-26T09:51:30;7.40;;;4.17;;
1404;SDS011;697;51.114;6.542;2023-06-26T09:53:57;5.83;;;3.50;;
1404;SDS011;697;51.114;6.542;2023-06-26T09:56:24;9.10;;;4.30;;
1404;SDS011;697;51.114;6.542;2023-06-26T09:58:52;12.77;;;5.10;;
1404;SDS011;697;51.114;6.542;2023-06-26T10:01:22;13.93;;;4.20;;
1404;SDS011;697;51.114;6.542;2023-06-26T10:03:49;8.30;;;3.93;;
1404;SDS011;697;51.114;6.542;2023-06-26T10:06:17;5.50;;;3.23;;
1404;SDS011;697;51.114;6.542;2023-06-26T10:08:48;6.60;;;4.20;;
1404;SDS011;697;51.114;6.542;2023-06-26T10:11:19;7.07;;;3.63;;
1404;SDS011;697;51.114;6.542;2023-06-26T10:13:52;6.93;;;3.03;;
1404;SDS011;697;51.114;6.542;2023-06-26T10:16:26;4.40;;;2.57;;
1404;SDS011;697;51.114;6.542;2023-06-26T10:18:56;6.57;;;2.90;;
1404;SDS011;697;51.114;6.542;2023-06-26T10:21:28;8.03;;;3.87;;
1404;SDS011;697;51.114;6.542;2023-06-26T10:23:57;15.10;;;3.33;;
1404;SDS011;697;51.114;6.542;2023-06-26T10:26:24;7.73;;;3.17;;
1404;SDS011;697;51.114;6.542;2023-06-26T10:28:53;7.87;;;3.00;;
1404;SDS011;697;51.114;6.542;2023-06-26T10:31:23;7.23;;;3.47;;
1404;SDS011;697;51.114;6.542;2023-06-26T10:33:55;4.93;;;2.43;;
1404;SDS011;697;51.114;6.542;2023-06-26T10:36:26;5.73;;;2.50;;
1404;SDS011;697;51.114;6.542;2023-06-26T10:38:55;4.90;;;2.50;;
1404;SDS011;697;51.114;6.542;2023-06-26T10:41:24;7.53;;;2.30;;
1404;SDS011;697;51.114;6.542;2023-06-26T10:44:05;8.23;;;2.23;;
1404;SDS011;697;51.114;6.542;2023-06-26T10:46:49;2.90;;;2.27;;
1404;SDS011;697;51.114;6.542;2023-06-26T10:49:17;4.80;;;2.10;;
1404;SDS011;697;51.114;6.542;2023-06-26T10:51:48;4.60;;;3.00;;
1404;SDS011;697;51.114;6.542;2023-06-26T10:54:15;6.10;;;2.50;;
1404;SDS011;697;51.114;6.542;2023-06-26T10:56:44;4.63;;;2.53;;
1404;SDS011;697;51.114;6.542;2023-06-26T10:59:13;3.93;;;1.43;;
1404;SDS011;697;51.114;6.542;2023-06-26T11:01:42;4.83;;;1.70;;
1404;SDS011;697;51.114;6.542;2023-06-26T11:04:12;8.30;;;1.97;;
1404;SDS011;697;51.114;6.542;2023-06-26T11:06:41;6.70;;;2.00;;
1404;SDS011;697;51.114;6.542;2023-06-26T11:09:13;9.67;;;1.67;;
1404;SDS011;697;51.114;6.542;2023-06-26T11:11:57;7.17;;;1.87;;
1404;SDS011;697;51.114;6.542;2023-06-26T11:14:29;4.50;;;2.00;;
1404;SDS011;697;51.114;6.542;2023-06-26T11:16:57;3.50;;;2.10;;
1404;SDS011;697;51.114;6.542;2023-06-26T11:19:27;3.23;;;1.80;;
1404;SDS011;697;51.114;6.542;2023-06-26T11:22:03;6.33;;;1.73;;
1404;SDS011;697;51.114;6.542;2023-06-26T11:24:31;4.80;;;2.00;;
1404;SDS011;697;51.114;6.542;2023-06-26T11:27:01;3.73;;;2.20;;
1404;SDS011;697;51.114;6.542;2023-06-26T11:29:29;4.83;;;2.10;;
1404;SDS011;697;51.114;6.542;2023-06-26T11:32:06;5.37;;;2.17;;
1404;SDS011;697;51.114;6.542;2023-06-26T11:34:34;3.80;;;1.90;;
1404;SDS011;697;51.114;6.542;2023-06-26T11:37:03;3.77;;;1.97;;
1404;SDS011;697;51.114;6.542;2023-06-26T11:39:30;2.73;;;1.60;;
1404;SDS011;697;51.114;6.542;2023-06-26T11:41:57;9.07;;;2.30;;
1404;SDS011;697;51.114;6.542;2023-06-26T11:44:25;3.50;;;2.23;;
1404;SDS011;697;51.114;6.542;2023-06-26T11:46:56;3.23;;;1.80;;
1404;SDS011;697;51.114;6.542;2023-06-26T11:49:23;2.97;;;1.77;;
1404;SDS011;697;51.114;6.542;2023-06-26T11:51:53;5.50;;;1.90;;
1404;SDS011;697;51.114;6.542;2023-06-26T11:54:23;4.00;;;1.60;;
1404;SDS011;697;51.114;6.542;2023-06-26T11:56:54;3.13;;;2.07;;
1404;SDS011;697;51.114;6.542;2023-06-26T11:59:32;5.70;;;1.73;;
1404;SDS011;697;51.114;6.542;2023-06-26T12:02:00;2.47;;;1.67;;
1404;SDS011;697;51.114;6.542;2023-06-26T12:04:31;2.77;;;1.53;;
1404;SDS011;697;51.114;6.542;2023-06-26T12:07:00;1.70;;;1.60;;
1404;SDS011;697;51.114;6.542;2023-06-26T12:09:29;2.60;;;1.60;;
1404;SDS011;697;51.114;6.542;2023-06-26T12:11:58;3.53;;;1.70;;
1404;SDS011;697;51.114;6.542;2023-06-26T12:14:26;2.57;;;1.60;;
1404;SDS011;697;51.114;6.542;2023-06-26T12:16:54;3.93;;;1.80;;
1404;SDS011;697;51.114;6.542;2023-06-26T12:19:29;3.93;;;1.37;;
1404;SDS011;697;51.114;6.542;2023-06-26T12:21:57;4.83;;;1.40;;
1404;SDS011;697;51.114;6.542;2023-06-26T12:24:26;1.40;;;1.30;;
1404;SDS011;697;51.114;6.542;2023-06-26T12:26:53;4.27;;;1.57;;
1404;SDS011;697;51.114;6.542;2023-06-26T12:29:24;5.10;;;1.17;;
1404;SDS011;697;51.114;6.542;2023-06-26T12:31:57;3.03;;;1.20;;
1404;SDS011;697;51.114;6.542;2023-06-26T12:34:26;2.00;;;1.20;;
1404;SDS011;697;51.114;6.542;2023-06-26T12:36:59;2.87;;;1.27;;
1404;SDS011;697;51.114;6.542;2023-06-26T12:39:28;3.33;;;1.57;;
1404;SDS011;697;51.114;6.542;2023-06-26T12:41:57;2.70;;;1.73;;
1404;SDS011;697;51.114;6.542;2023-06-26T12:44:26;3.50;;;1.30;;
1404;SDS011;697;51.114;6.542;2023-06-26T12:46:54;3.83;;;1.57;;
1404;SDS011;697;51.114;6.542;2023-06-26T12:49:29;2.63;;;1.30;;
1404;SDS011;697;51.114;6.542;2023-06-26T12:51:57;3.43;;;1.87;;
1404;SDS011;697;51.114;6.542;2023-06-26T12:54:28;1.87;;;1.30;;
1404;SDS011;697;51.114;6.542;2023-06-26T12:56:55;4.00;;;1.10;;
1404;SDS011;697;51.114;6.542;2023-06-26T12:59:22;3.00;;;1.57;;
1404;SDS011;697;51.114;6.542;2023-06-26T13:01:49;6.33;;;1.60;;
1404;SDS011;697;51.114;6.542;2023-06-26T13:04:16;3.22;;;1.50;;
1404;SDS011;697;51.114;6.542;2023-06-26T13:06:43;3.67;;;1.52;;
1404;SDS011;697;51.114;6.542;2023-06-26T13:09:10;3.38;;;1.10;;
1404;SDS011;697;51.114;6.542;2023-06-26T13:11:39;5.03;;;1.73;;
1404;SDS011;697;51.114;6.542;2023-06-26T13:14:06;3.47;;;1.30;;
1404;SDS011;697;51.114;6.542;2023-06-26T13:16:33;3.03;;;1.33;;
1404;SDS011;697;51.114;6.542;2023-06-26T13:19:00;2.55;;;1.33;;
1404;SDS011;697;51.114;6.542;2023-06-26T13:21:27;4.50;;;1.60;;
1404;SDS011;697;51.114;6.542;2023-06-26T13:23:54;3.90;;;1.55;;
1404;SDS011;697;51.114;6.542;2023-06-26T13:26:23;2.88;;;1.20;;
1404;SDS011;697;51.114;6.542;2023-06-26T13:28:52;5.20;;;1.98;;
1404;SDS011;697;51.114;6.542;2023-06-26T13:31:19;3.40;;;1.40;;
1404;SDS011;697;51.114;6.542;2023-06-26T13:33:46;2.90;;;1.35;;
1404;SDS011;697;51.114;6.542;2023-06-26T13:36:14;2.25;;;1.35;;
1404;SDS011;697;51.114;6.542;2023-06-26T13:38:43;2.38;;;1.20;;
1404;SDS011;697;51.114;6.542;2023-06-26T13:41:10;4.40;;;1.67;;
1404;SDS011;697;51.114;6.542;2023-06-26T13:43:40;3.35;;;1.63;;
1404;SDS011;697;51.114;6.542;2023-06-26T13:46:08;4.97;;;1.50;;
1404;SDS011;697;51.114;6.542;2023-06-26T13:48:35;5.20;;;1.88;;
1404;SDS011;697;51.114;6.542;2023-06-26T13:51:02;4.57;;;1.30;;
1404;SDS011;697;51.114;6.542;2023-06-26T13:53:28;2.35;;;1.27;;
1404;SDS011;697;51.114;6.542;2023-06-26T13:55:55;3.45;;;1.50;;
1404;SDS011;697;51.114;6.542;2023-06-26T13:58:22;3.10;;;1.38;;
1404;SDS011;697;51.114;6.542;2023-06-26T14:00:51;3.95;;;1.30;;
1404;SDS011;697;51.114;6.542;2023-06-26T14:03:22;5.80;;;1.10;;
1404;SDS011;697;51.114;6.542;2023-06-26T14:05:48;2.50;;;1.50;;
1404;SDS011;697;51.114;6.542;2023-06-26T14:08:16;3.60;;;1.80;;
1404;SDS011;697;51.114;6.542;2023-06-26T14:10:43;5.50;;;1.73;;
1404;SDS011;697;51.114;6.542;2023-06-26T14:13:10;1.55;;;1.13;;
1404;SDS011;697;51.114;6.542;2023-06-26T14:15:40;3.03;;;1.50;;
1404;SDS011;697;51.114;6.542;2023-06-26T14:18:07;3.40;;;1.30;;
1404;SDS011;697;51.114;6.542;2023-06-26T14:20:35;10.07;;;2.25;;
1404;SDS011;697;51.114;6.542;2023-06-26T14:23:02;4.70;;;1.80;;
1404;SDS011;697;51.114;6.542;2023-06-26T14:25:29;5.90;;;1.73;;
1404;SDS011;697;51.114;6.542;2023-06-26T14:27:56;5.70;;;1.70;;
1404;SDS011;697;51.114;6.542;2023-06-26T14:30:24;4.03;;;1.60;;
1404;SDS011;697;51.114;6.542;2023-06-26T14:32:51;5.30;;;1.83;;
1404;SDS011;697;51.114;6.542;2023-06-26T14:35:18;4.10;;;1.60;;
1404;SDS011;697;51.114;6.542;2023-06-26T14:37:47;6.13;;;1.50;;
1404;SDS011;697;51.114;6.542;2023-06-26T14:40:16;4.57;;;1.67;;
1404;SDS011;697;51.114;6.542;2023-06-26T14:42:43;3.53;;;1.63;;
1404;SDS011;697;51.114;6.542;2023-06-26T14:45:10;3.63;;;1.40;;
1404;SDS011;697;51.114;6.542;2023-06-26T14:47:37;3.43;;;1.33;;
1404;SDS011;697;51.114;6.542;2023-06-26T14:50:05;3.33;;;1.40;;
1404;SDS011;697;51.114;6.542;2023-06-26T14:52:32;2.43;;;1.60;;
1404;SDS011;697;51.114;6.542;2023-06-26T14:55:00;4.60;;;1.73;;
1404;SDS011;697;51.114;6.542;2023-06-26T14:57:28;3.30;;;1.30;;
1404;SDS011;697;51.114;6.542;2023-06-26T14:59:55;11.10;;;3.37;;
1404;SDS011;697;51.114;6.542;2023-06-26T15:02:22;3.67;;;1.30;;
1404;SDS011;697;51.114;6.542;2023-06-26T15:04:52;2.60;;;1.63;;
1404;SDS011;697;51.114;6.542;2023-06-26T15:07:18;5.30;;;1.60;;
1404;SDS011;697;51.114;6.542;2023-06-26T15:09:45;2.83;;;1.50;;
1404;SDS011;697;51.114;6.542;2023-06-26T15:12:13;6.60;;;1.87;;
1404;SDS011;697;51.114;6.542;2023-06-26T15:14:40;3.83;;;1.53;;
1404;SDS011;697;51.114;6.542;2023-06-26T15:17:07;3.13;;;1.70;;
1404;SDS011;697;51.114;6.542;2023-06-26T15:19:34;5.23;;;1.50;;
1404;SDS011;697;51.114;6.542;2023-06-26T15:22:02;3.73;;;1.63;;
1404;SDS011;697;51.114;6.542;2023-06-26T15:24:29;3.90;;;1.77;;
1404;SDS011;697;51.114;6.542;2023-06-26T15:26:56;3.50;;;1.70;;
1404;SDS011;697;51.114;6.542;2023-06-26T15:29:24;3.83;;;2.03;;
1404;SDS011;697;51.114;6.542;2023-06-26T15:31:51;1.47;;;1.30;;